CheckWX is a tool to help pilots better visualize weather data.  It is not intended as a substitute for an official pre-flight weather briefing.

03:03:28 UTC

KGUY TAF
Guymon Municipal Airport
Guymon, Oklahoma, USA
KGUY 222336Z 2300/2324 07007KT P6SM FEW050 SCT300 FM231400 14009KT P6SM FEW060 SCT300

Jul-23@
00:00 UTC

Jul-23 @ 00:00 UTC

Jul-23@
14:00 UTC

Jul-23 @ 14:00 UTC

KGUY 222336Z 2300/2324 07007KT P6SM FEW050 SCT300
Wind
  • 070° at 7 KTS
Cloud Levels
  • Few at 5,000' AGL
  • Scattered at 30,000' AGL

Jul-23@
14:00 UTC

Jul-23 @ 14:00 UTC

Jul-24@
00:00 UTC

Jul-24 @ 00:00 UTC

FM231400 14009KT P6SM FEW060 SCT300

From

From Standard forecast or significant change

Wind
  • 140° at 9 KTS
Cloud Levels
  • Few at 6,000' AGL
  • Scattered at 30,000' AGL